Time;durP1;ratioP1;P1;durP2;ratioP2;P2;SDS_P1;SDS_P2;PMS_P1;PMS_P2;Temp;Humidity;BMP_temperature;BMP_pressure;BME280_temperature;BME280_humidity;BME280_pressure;Samples;Min_cycle;Max_cycle;Signal;HPM_P1;HPM_P2
2023/01/31 00:00:45;;;;;;;13.93;2.30;;;4.30;99.90;;;;;;4993830;28;20038;-84
2023/01/31 00:03:11;;;;;;;19.60;3.15;;;4.20;99.90;;;;;;4992907;28;20042;-84
2023/01/31 00:05:37;;;;;;;15.32;2.20;;;4.20;99.90;;;;;;4992998;28;20043;-84
2023/01/31 00:08:02;;;;;;;10.80;1.90;;;4.20;99.90;;;;;;4992417;28;20113;-84
2023/01/31 00:10:28;;;;;;;14.30;2.58;;;4.20;99.90;;;;;;4991655;28;20479;-84
2023/01/31 00:12:54;;;;;;;9.18;2.17;;;4.20;99.90;;;;;;4993037;28;20119;-83
2023/01/31 00:15:19;;;;;;;21.45;2.58;;;4.20;99.90;;;;;;4992982;28;20030;-84
2023/01/31 00:17:45;;;;;;;13.80;2.33;;;4.10;99.90;;;;;;4993689;28;20042;-84
2023/01/31 00:20:11;;;;;;;17.85;2.55;;;4.20;99.90;;;;;;4991828;28;20046;-84
2023/01/31 00:22:37;;;;;;;9.93;1.83;;;4.10;99.90;;;;;;4991695;28;20044;-84
2023/01/31 00:25:03;;;;;;;14.20;1.83;;;4.10;99.90;;;;;;4975646;28;20034;-84
2023/01/31 00:27:29;;;;;;;10.77;1.50;;;4.20;99.90;;;;;;4993808;28;20042;-84
2023/01/31 00:29:55;;;;;;;11.93;1.92;;;4.20;99.90;;;;;;4989116;28;20042;-84
2023/01/31 00:32:21;;;;;;;13.40;2.72;;;4.10;99.90;;;;;;4991281;28;20037;-84
2023/01/31 00:34:47;;;;;;;13.48;1.92;;;4.10;99.90;;;;;;4991495;28;20058;-84
2023/01/31 00:37:12;;;;;;;9.32;2.22;;;4.00;99.90;;;;;;4993137;28;20041;-84
2023/01/31 00:39:38;;;;;;;10.27;2.03;;;4.00;99.90;;;;;;4993054;28;20073;-84
2023/01/31 00:42:04;;;;;;;10.60;2.03;;;4.00;99.90;;;;;;4976056;28;20376;-84
2023/01/31 00:44:29;;;;;;;14.00;2.30;;;4.00;99.90;;;;;;4991726;28;20045;-84
2023/01/31 00:46:55;;;;;;;16.35;2.30;;;3.90;99.90;;;;;;4990876;28;20050;-84
2023/01/31 00:49:20;;;;;;;11.40;2.15;;;3.90;99.90;;;;;;4991936;28;20387;-83
2023/01/31 00:51:46;;;;;;;10.80;2.28;;;3.90;99.90;;;;;;4991853;28;20125;-84
2023/01/31 00:54:12;;;;;;;10.48;2.10;;;3.90;99.90;;;;;;4989392;28;20510;-83
2023/01/31 00:56:37;;;;;;;12.82;2.10;;;3.80;99.90;;;;;;4993421;28;20034;-83
2023/01/31 00:59:07;;;;;;;12.10;2.35;;;3.90;99.90;;;;;;4992471;28;20074;-84
2023/01/31 01:01:34;;;;;;;11.10;2.03;;;3.80;99.90;;;;;;4991533;28;20119;-84
2023/01/31 01:04:00;;;;;;;11.50;1.80;;;3.80;99.90;;;;;;4992037;28;20042;-85
2023/01/31 01:06:26;;;;;;;7.43;1.65;;;3.80;99.90;;;;;;4976076;28;20046;-84
2023/01/31 01:08:53;;;;;;;9.43;1.75;;;3.70;99.90;;;;;;4990698;28;20069;-84
2023/01/31 01:11:20;;;;;;;14.40;1.92;;;3.70;99.90;;;;;;4991786;28;20053;-84
2023/01/31 01:13:47;;;;;;;9.05;1.70;;;3.70;99.90;;;;;;4991827;28;20044;-84
2023/01/31 01:16:18;;;;;;;9.10;1.92;;;3.70;99.90;;;;;;4991820;28;20472;-85
2023/01/31 01:18:45;;;;;;;16.58;2.47;;;3.80;99.90;;;;;;4992685;28;20451;-84
2023/01/31 01:21:15;;;;;;;10.18;1.73;;;3.80;99.90;;;;;;4992945;28;20042;-84
2023/01/31 01:23:41;;;;;;;12.23;1.90;;;3.80;99.90;;;;;;4990120;28;20053;-84
2023/01/31 01:26:16;;;;;;;11.90;1.67;;;3.80;99.90;;;;;;4991179;28;20046;-84
2023/01/31 01:28:42;;;;;;;11.73;2.17;;;3.80;99.90;;;;;;4990901;28;20050;-85
2023/01/31 01:31:09;;;;;;;15.18;2.25;;;3.70;99.90;;;;;;4974536;28;20034;-84
2023/01/31 01:33:35;;;;;;;10.25;1.75;;;3.70;99.90;;;;;;4991574;28;20210;-84
2023/01/31 01:36:03;;;;;;;9.23;2.08;;;3.70;99.90;;;;;;4992429;28;20093;-84
2023/01/31 01:38:29;;;;;;;11.82;1.90;;;3.60;99.90;;;;;;4975025;28;20400;-84
2023/01/31 01:40:55;;;;;;;11.27;1.80;;;3.50;99.90;;;;;;4991793;28;20046;-84
2023/01/31 01:43:20;;;;;;;9.98;1.80;;;3.40;99.90;;;;;;4991024;28;20050;-84
2023/01/31 01:45:47;;;;;;;9.93;1.73;;;3.30;99.90;;;;;;4973702;28;20064;-84
2023/01/31 01:48:16;;;;;;;10.48;1.85;;;3.30;99.90;;;;;;4991371;28;20038;-84
2023/01/31 01:50:46;;;;;;;10.48;1.90;;;3.20;99.90;;;;;;4992630;28;20498;-84
2023/01/31 01:53:22;;;;;;;9.10;1.73;;;3.20;99.90;;;;;;4990820;28;20081;-85
2023/01/31 01:55:57;;;;;;;11.55;2.00;;;3.20;99.90;;;;;;4989817;28;20043;-84
2023/01/31 01:58:30;;;;;;;12.50;1.60;;;3.10;99.90;;;;;;4990300;28;20061;-84
2023/01/31 02:00:56;;;;;;;12.20;1.88;;;3.10;99.90;;;;;;4989582;28;20545;-85
2023/01/31 02:03:22;;;;;;;10.75;2.05;;;3.20;99.90;;;;;;4991300;28;20092;-85
2023/01/31 02:05:55;;;;;;;14.52;2.40;;;3.20;99.90;;;;;;4989923;28;20108;-85
2023/01/31 02:08:22;;;;;;;12.43;1.98;;;3.10;99.90;;;;;;4974567;28;20555;-85
2023/01/31 02:10:51;;;;;;;15.52;1.90;;;3.10;99.90;;;;;;4989428;28;20038;-84
2023/01/31 02:13:18;;;;;;;13.95;1.92;;;3.10;99.90;;;;;;4990715;28;20046;-84
2023/01/31 02:15:45;;;;;;;10.32;1.70;;;3.10;99.90;;;;;;4989873;28;20054;-84
2023/01/31 02:18:11;;;;;;;9.18;2.00;;;3.10;99.90;;;;;;4971840;28;20051;-84
2023/01/31 02:20:37;;;;;;;7.63;1.60;;;3.00;99.90;;;;;;4971181;28;20047;-85
2023/01/31 02:23:25;;;;;;;12.55;1.77;;;3.00;99.90;;;;;;4973184;28;20046;-85
2023/01/31 02:26:09;;;;;;;13.55;2.25;;;2.90;99.90;;;;;;4976391;28;20133;-85
2023/01/31 02:28:44;;;;;;;14.43;2.53;;;2.90;99.90;;;;;;4990464;28;20053;-85
2023/01/31 02:31:33;;;;;;;12.35;1.58;;;2.90;99.90;;;;;;4992437;28;20043;-84
2023/01/31 02:34:33;;;;;;;9.70;1.63;;;2.90;99.90;;;;;;4991642;28;20097;-85
2023/01/31 02:37:25;;;;;;;12.02;2.20;;;2.90;99.90;;;;;;4980249;28;20046;-84
2023/01/31 02:39:59;;;;;;;14.02;2.08;;;2.90;99.90;;;;;;4989164;28;20049;-84
2023/01/31 02:42:51;;;;;;;8.98;1.42;;;3.00;99.90;;;;;;4988551;28;20038;-85
2023/01/31 02:45:25;;;;;;;13.00;1.85;;;3.00;99.90;;;;;;4992071;28;20058;-86
2023/01/31 02:48:19;;;;;;;12.95;2.40;;;3.10;99.90;;;;;;4974132;28;20117;-85
2023/01/31 02:51:11;;;;;;;12.65;2.25;;;3.10;99.90;;;;;;4990578;28;20074;-85
2023/01/31 02:53:45;;;;;;;13.77;1.92;;;3.20;99.90;;;;;;4989313;28;20042;-85
2023/01/31 02:56:25;;;;;;;11.00;1.95;;;3.20;99.90;;;;;;4990733;28;20042;-85
2023/01/31 02:59:03;;;;;;;8.85;1.92;;;3.30;99.90;;;;;;4988946;28;20492;-84
2023/01/31 03:01:48;;;;;;;11.55;2.20;;;3.40;99.90;;;;;;4991274;28;20046;-85
2023/01/31 03:04:14;;;;;;;9.82;2.00;;;3.50;99.90;;;;;;4970706;28;20047;-85
2023/01/31 03:06:39;;;;;;;13.05;2.28;;;3.60;99.90;;;;;;4987877;28;20419;-85
2023/01/31 03:09:23;;;;;;;11.65;2.20;;;3.70;99.90;;;;;;4988675;28;20146;-85
2023/01/31 03:12:17;;;;;;;16.90;2.35;;;3.70;99.90;;;;;;4989483;28;20082;-85
2023/01/31 03:15:20;;;;;;;11.27;1.98;;;3.80;99.90;;;;;;4990261;28;20042;-85
2023/01/31 03:18:10;;;;;;;13.45;1.95;;;3.90;99.90;;;;;;4992443;28;20050;-85
2023/01/31 03:20:45;;;;;;;10.73;1.80;;;4.00;99.90;;;;;;4975090;28;20600;-85
2023/01/31 03:23:15;;;;;;;12.10;2.22;;;4.10;99.90;;;;;;4990754;28;20042;-84
2023/01/31 03:25:42;;;;;;;8.55;2.33;;;4.10;99.90;;;;;;4988264;28;20177;-85
2023/01/31 03:28:13;;;;;;;13.25;2.33;;;4.20;99.90;;;;;;4990767;28;20066;-85
2023/01/31 03:30:55;;;;;;;11.25;3.78;;;4.20;99.90;;;;;;4989784;28;20042;-85
2023/01/31 03:33:29;;;;;;;14.57;2.17;;;4.20;99.90;;;;;;4988595;28;20097;-85
2023/01/31 03:36:22;;;;;;;12.00;3.17;;;4.20;99.90;;;;;;4990963;28;20058;-85
2023/01/31 03:39:08;;;;;;;11.95;2.08;;;4.20;99.90;;;;;;4988973;28;20076;-85
2023/01/31 03:41:49;;;;;;;12.30;2.20;;;4.30;99.90;;;;;;4989492;28;20043;-85
2023/01/31 03:44:30;;;;;;;10.93;2.13;;;4.20;99.90;;;;;;4990286;28;20080;-85
2023/01/31 03:47:04;;;;;;;12.82;2.78;;;4.20;99.90;;;;;;4974051;28;20109;-85
2023/01/31 03:49:31;;;;;;;11.43;2.70;;;4.30;99.90;;;;;;4986969;28;20050;-85
2023/01/31 03:52:05;;;;;;;14.38;3.22;;;4.30;99.90;;;;;;4992533;28;20345;-85
2023/01/31 03:54:40;;;;;;;12.50;2.33;;;4.40;99.90;;;;;;4977268;28;20049;-85
2023/01/31 03:57:27;;;;;;;14.15;2.08;;;4.40;99.90;;;;;;4994084;28;20092;-85
2023/01/31 03:59:56;;;;;;;15.13;2.55;;;4.50;99.90;;;;;;4992469;28;20046;-85
2023/01/31 04:02:26;;;;;;;13.85;2.67;;;4.50;99.90;;;;;;4994706;28;20082;-85
2023/01/31 04:05:01;;;;;;;10.52;2.53;;;4.50;99.90;;;;;;4993614;28;20046;-85
2023/01/31 04:07:26;;;;;;;10.70;2.30;;;4.50;99.90;;;;;;4993541;28;20137;-85
2023/01/31 04:09:52;;;;;;;17.10;3.80;;;4.50;99.90;;;;;;4994658;28;20121;-86
2023/01/31 04:12:18;;;;;;;11.43;2.25;;;4.50;99.90;;;;;;4993585;28;20046;-85
2023/01/31 04:14:43;;;;;;;12.80;2.65;;;4.60;99.90;;;;;;4993739;28;20053;-85
2023/01/31 04:17:09;;;;;;;17.23;3.22;;;4.60;99.90;;;;;;4992651;28;20046;-85
2023/01/31 04:19:35;;;;;;;9.15;2.28;;;4.70;99.90;;;;;;4991560;28;20052;-85
2023/01/31 04:22:00;;;;;;;13.90;2.58;;;4.70;99.90;;;;;;4994231;28;20046;-85
2023/01/31 04:24:26;;;;;;;11.18;2.22;;;4.70;99.90;;;;;;4993363;28;20514;-85
2023/01/31 04:26:51;;;;;;;11.88;2.30;;;4.70;99.90;;;;;;4993029;28;20034;-84
2023/01/31 04:29:17;;;;;;;17.23;2.28;;;4.80;99.90;;;;;;4994299;28;20380;-85
2023/01/31 04:31:43;;;;;;;13.70;2.88;;;4.90;99.90;;;;;;4992609;28;20081;-84
2023/01/31 04:34:08;;;;;;;13.68;3.20;;;4.90;99.90;;;;;;4993235;28;20480;-85
2023/01/31 04:36:34;;;;;;;16.20;3.20;;;4.90;99.90;;;;;;4976741;28;20043;-85
2023/01/31 04:39:00;;;;;;;12.50;3.35;;;4.90;99.90;;;;;;4992841;28;20446;-85
2023/01/31 04:41:26;;;;;;;13.00;2.70;;;5.00;99.90;;;;;;4992444;28;20112;-84
2023/01/31 04:43:51;;;;;;;16.17;2.83;;;5.00;99.90;;;;;;4994275;28;20035;-85
2023/01/31 04:46:17;;;;;;;18.55;5.22;;;5.00;99.90;;;;;;4975957;28;20038;-85
2023/01/31 04:48:43;;;;;;;10.65;3.13;;;5.00;99.90;;;;;;4992183;28;20542;-85
2023/01/31 04:51:09;;;;;;;12.65;2.85;;;5.00;99.90;;;;;;4992450;28;20069;-85
2023/01/31 04:53:34;;;;;;;13.75;2.47;;;5.00;99.90;;;;;;4992740;28;20490;-85
2023/01/31 04:56:01;;;;;;;16.15;3.35;;;5.00;99.90;;;;;;4993061;28;20129;-85
2023/01/31 04:58:26;;;;;;;17.92;5.95;;;5.10;99.90;;;;;;5025273;28;20168;-85
2023/01/31 05:00:55;;;;;;;23.50;6.15;;;5.10;99.90;;;;;;4991085;28;20077;-84
2023/01/31 05:03:21;;;;;;;11.77;2.33;;;5.10;99.90;;;;;;4988330;28;20483;-85
2023/01/31 05:05:48;;;;;;;15.40;3.58;;;5.10;99.90;;;;;;4990855;28;20165;-85
2023/01/31 05:08:13;;;;;;;11.73;2.53;;;5.20;99.90;;;;;;4993603;28;20041;-84
2023/01/31 05:10:39;;;;;;;13.57;2.78;;;5.20;99.90;;;;;;4992108;28;20035;-85
2023/01/31 05:13:05;;;;;;;16.10;3.10;;;5.10;99.90;;;;;;4991089;28;20494;-85
2023/01/31 05:15:31;;;;;;;13.02;2.88;;;5.30;99.90;;;;;;4990434;28;20073;-85
2023/01/31 05:18:03;;;;;;;12.18;3.28;;;5.20;99.90;;;;;;4975221;28;20050;-85
2023/01/31 05:20:38;;;;;;;10.73;2.40;;;5.30;99.90;;;;;;4993094;28;20427;-84
2023/01/31 05:23:07;;;;;;;14.48;3.10;;;5.30;99.90;;;;;;4974049;28;20047;-85
2023/01/31 05:25:34;;;;;;;15.20;4.07;;;5.30;99.90;;;;;;4974069;28;20039;-85
2023/01/31 05:28:00;;;;;;;11.63;2.63;;;5.30;99.90;;;;;;4991588;28;20051;-84
2023/01/31 05:30:26;;;;;;;15.15;3.47;;;5.40;99.90;;;;;;4974673;28;20038;-83
2023/01/31 05:32:52;;;;;;;17.13;3.58;;;5.40;99.90;;;;;;4991143;28;20092;-83
2023/01/31 05:35:18;;;;;;;18.40;4.10;;;5.40;99.90;;;;;;4992259;28;20077;-84
2023/01/31 05:37:44;;;;;;;21.63;3.90;;;5.40;99.90;;;;;;4991278;28;20050;-84
2023/01/31 05:40:11;;;;;;;16.30;3.60;;;5.50;99.90;;;;;;4992196;28;20455;-84
2023/01/31 05:42:37;;;;;;;14.38;3.70;;;5.50;99.90;;;;;;4991401;28;20141;-83
2023/01/31 05:45:03;;;;;;;15.52;4.05;;;5.50;99.90;;;;;;4985092;28;20121;-83
2023/01/31 05:47:29;;;;;;;16.75;4.80;;;5.50;99.90;;;;;;4991196;28;20046;-84
2023/01/31 05:49:55;;;;;;;17.75;3.80;;;5.50;99.90;;;;;;4973500;28;20042;-85
2023/01/31 05:52:20;;;;;;;15.32;3.65;;;5.50;99.90;;;;;;4991392;28;20399;-84
2023/01/31 05:54:46;;;;;;;13.15;2.92;;;5.50;99.90;;;;;;4991084;28;20118;-87
2023/01/31 05:57:13;;;;;;;13.20;3.33;;;5.50;99.90;;;;;;4990120;28;20119;-84
2023/01/31 05:59:38;;;;;;;21.42;5.57;;;5.50;99.90;;;;;;4974940;28;20594;-84
2023/01/31 06:02:04;;;;;;;18.83;4.38;;;5.50;99.90;;;;;;4990337;28;20069;-83
2023/01/31 06:04:30;;;;;;;14.20;4.13;;;5.40;99.90;;;;;;4991735;28;20049;-83
2023/01/31 06:06:55;;;;;;;8.93;3.50;;;5.50;99.90;;;;;;4990012;28;20045;-84
2023/01/31 06:09:21;;;;;;;23.25;6.40;;;5.50;99.90;;;;;;4990667;28;20132;-84
2023/01/31 06:11:47;;;;;;;18.48;5.47;;;5.50;99.90;;;;;;4990802;28;20038;-84
2023/01/31 06:14:12;;;;;;;21.42;5.07;;;5.50;99.90;;;;;;4990993;28;20390;-83
2023/01/31 06:16:38;;;;;;;18.38;5.00;;;5.40;99.90;;;;;;4987979;28;20479;-83
2023/01/31 06:19:04;;;;;;;18.02;5.00;;;5.50;99.90;;;;;;4990102;28;20483;-83
2023/01/31 06:21:29;;;;;;;21.00;6.15;;;5.50;99.90;;;;;;4990478;28;20061;-83
2023/01/31 06:23:55;;;;;;;15.25;5.47;;;5.50;99.90;;;;;;4988932;28;20057;-83
2023/01/31 06:26:20;;;;;;;15.70;5.22;;;5.50;99.90;;;;;;4988634;28;20066;-83
2023/01/31 06:28:46;;;;;;;18.70;4.82;;;5.40;99.90;;;;;;4988946;28;20040;-83
2023/01/31 06:31:12;;;;;;;19.55;5.18;;;5.50;99.90;;;;;;4984780;28;20121;-82
2023/01/31 06:33:38;;;;;;;13.90;3.47;;;5.50;99.90;;;;;;4989995;28;20050;-84
2023/01/31 06:36:03;;;;;;;21.75;5.18;;;5.50;99.90;;;;;;4983515;28;20057;-84
2023/01/31 06:38:30;;;;;;;25.45;5.68;;;5.60;99.90;;;;;;4982265;28;20049;-86
2023/01/31 06:40:55;;;;;;;17.98;4.90;;;5.60;99.90;;;;;;4989979;28;20101;-87
2023/01/31 06:43:21;;;;;;;18.98;5.15;;;5.60;99.90;;;;;;4988435;28;20030;-87
2023/01/31 06:45:48;;;;;;;16.02;5.32;;;5.70;99.90;;;;;;4986859;28;20038;-86
2023/01/31 06:48:14;;;;;;;18.95;5.32;;;5.60;99.90;;;;;;4973396;28;20074;-86
2023/01/31 06:50:40;;;;;;;20.42;5.70;;;5.60;99.90;;;;;;4989683;28;20096;-86
2023/01/31 06:53:07;;;;;;;28.65;10.63;;;5.70;99.90;;;;;;4990276;28;20050;-85
2023/01/31 06:55:32;;;;;;;22.38;6.28;;;5.70;99.90;;;;;;4986181;28;20418;-85
2023/01/31 06:57:58;;;;;;;20.48;6.88;;;5.80;99.90;;;;;;4990581;28;20134;-86
2023/01/31 07:00:24;;;;;;;28.55;10.23;;;5.80;99.90;;;;;;4991773;28;20129;-86
2023/01/31 07:02:51;;;;;;;18.67;5.30;;;5.80;99.90;;;;;;4990162;28;20046;-86
2023/01/31 07:05:17;;;;;;;22.05;4.70;;;5.90;99.90;;;;;;4988106;28;20479;-85
2023/01/31 07:07:43;;;;;;;15.63;5.78;;;5.90;99.90;;;;;;4986677;28;20049;-86
2023/01/31 07:10:09;;;;;;;15.02;5.10;;;5.80;99.90;;;;;;4974748;28;20038;-88
2023/01/31 07:12:35;;;;;;;19.10;6.45;;;5.90;99.90;;;;;;4989068;28;20045;-86
2023/01/31 07:15:01;;;;;;;28.15;9.65;;;6.00;99.90;;;;;;4989782;28;20513;-87
2023/01/31 07:17:26;;;;;;;19.65;5.03;;;5.90;99.90;;;;;;4987530;28;20038;-86
2023/01/31 07:19:52;;;;;;;17.70;5.25;;;5.90;99.90;;;;;;4990463;28;20038;-86
2023/01/31 07:22:18;;;;;;;16.13;4.28;;;5.90;99.90;;;;;;4988036;28;20402;-85
2023/01/31 07:24:44;;;;;;;13.73;3.80;;;5.90;99.90;;;;;;4976250;28;20402;-85
2023/01/31 07:27:13;;;;;;;26.80;9.52;;;5.90;99.90;;;;;;4992068;28;20047;-85
2023/01/31 07:29:39;;;;;;;21.25;4.90;;;5.90;99.90;;;;;;4995157;28;20181;-87
2023/01/31 07:32:05;;;;;;;12.77;3.40;;;6.00;99.90;;;;;;4988022;28;20078;-88
2023/01/31 07:34:30;;;;;;;16.73;5.30;;;6.00;99.90;;;;;;4985204;28;20505;-86
2023/01/31 07:36:56;;;;;;;13.23;4.43;;;6.00;99.90;;;;;;4989375;28;20081;-85
2023/01/31 07:39:22;;;;;;;24.02;7.70;;;6.00;99.90;;;;;;4992018;28;20538;-86
2023/01/31 07:41:48;;;;;;;22.20;7.05;;;6.10;99.90;;;;;;4994922;28;20034;-85
2023/01/31 07:44:14;;;;;;;14.68;3.90;;;6.10;99.90;;;;;;4990035;28;20062;-86
2023/01/31 07:46:39;;;;;;;21.88;7.35;;;6.10;99.90;;;;;;4991856;28;20044;-85
2023/01/31 07:49:05;;;;;;;12.32;3.45;;;6.20;99.90;;;;;;4974407;28;20042;-85
2023/01/31 07:51:31;;;;;;;22.38;7.72;;;6.20;99.90;;;;;;4990042;28;20042;-87
2023/01/31 07:53:57;;;;;;;17.60;5.35;;;6.30;99.90;;;;;;4991367;28;20053;-85
2023/01/31 07:56:22;;;;;;;14.63;3.10;;;6.30;99.90;;;;;;4983536;28;20057;-85
2023/01/31 07:58:49;;;;;;;9.68;3.13;;;6.30;99.90;;;;;;4991849;28;20161;-86
2023/01/31 08:04:05;;;;;;;15.10;4.28;;;6.40;99.90;;;;;;4993861;28;20133;-87
2023/01/31 08:06:31;;;;;;;5.90;2.13;;;6.30;99.90;;;;;;4991878;28;20042;-86
2023/01/31 08:08:57;;;;;;;17.77;4.35;;;6.40;99.90;;;;;;4991221;28;20038;-88
2023/01/31 08:11:23;;;;;;;20.63;7.72;;;6.40;99.90;;;;;;4976221;28;20104;-87
2023/01/31 08:13:49;;;;;;;18.00;5.13;;;6.40;99.90;;;;;;4992900;28;20078;-89
2023/01/31 08:16:15;;;;;;;17.60;4.32;;;6.40;99.90;;;;;;4991764;28;20491;-88
2023/01/31 08:18:41;;;;;;;15.25;3.67;;;6.40;99.90;;;;;;4971382;28;20049;-88
2023/01/31 08:21:07;;;;;;;22.20;8.27;;;6.40;99.90;;;;;;4994237;28;20038;-89
2023/01/31 08:23:34;;;;;;;19.38;5.00;;;6.50;99.90;;;;;;4978527;28;20042;-89
2023/01/31 08:26:05;;;;;;;14.88;3.60;;;6.40;99.90;;;;;;4993072;28;20050;-89
2023/01/31 08:28:31;;;;;;;11.88;3.53;;;6.50;99.90;;;;;;4991147;28;20034;-88
2023/01/31 08:30:57;;;;;;;17.80;6.95;;;6.40;99.90;;;;;;4998288;28;20491;-90
2023/01/31 08:33:23;;;;;;;12.20;3.70;;;6.50;99.90;;;;;;4978145;28;20057;-91
2023/01/31 08:35:49;;;;;;;9.80;3.65;;;6.50;99.90;;;;;;4978819;28;20455;-91
2023/01/31 08:38:14;;;;;;;22.63;7.88;;;6.50;99.90;;;;;;4974841;28;20038;-89
2023/01/31 08:40:40;;;;;;;20.10;4.93;;;6.60;99.90;;;;;;4995020;28;20074;-90
2023/01/31 08:43:07;;;;;;;14.65;4.47;;;6.50;99.90;;;;;;4977504;28;20041;-90
2023/01/31 08:45:32;;;;;;;18.98;6.47;;;6.60;99.90;;;;;;4976912;28;20038;-89
2023/01/31 08:47:59;;;;;;;23.52;7.40;;;6.60;99.90;;;;;;4988808;28;20046;-88
2023/01/31 08:50:27;;;;;;;10.50;3.20;;;6.60;99.90;;;;;;4990818;28;20034;-96
2023/01/31 08:52:54;;;;;;;11.43;3.65;;;6.70;99.90;;;;;;4975365;28;20065;-86
2023/01/31 08:55:21;;;;;;;14.65;5.82;;;6.70;99.90;;;;;;4992800;28;20060;-86
2023/01/31 08:57:47;;;;;;;13.02;4.03;;;6.80;99.90;;;;;;4989594;28;20057;-89
2023/01/31 09:00:14;;;;;;;13.07;3.85;;;6.80;99.90;;;;;;4971413;28;20046;-89
2023/01/31 09:02:39;;;;;;;21.45;6.47;;;6.90;99.90;;;;;;4993151;28;20120;-87
2023/01/31 09:05:07;;;;;;;10.63;2.97;;;6.90;99.90;;;;;;4986564;28;20495;-88
2023/01/31 09:07:35;;;;;;;12.27;3.80;;;6.90;99.90;;;;;;4992314;28;20104;-89
2023/01/31 09:10:01;;;;;;;17.40;5.40;;;6.90;99.90;;;;;;4990652;28;20034;-85
2023/01/31 09:12:27;;;;;;;14.18;5.45;;;6.90;99.90;;;;;;4992320;28;20057;-88
2023/01/31 09:14:53;;;;;;;12.38;2.88;;;6.90;99.90;;;;;;4988174;28;20042;-87
2023/01/31 09:17:18;;;;;;;17.98;6.05;;;7.00;99.90;;;;;;4989336;28;20076;-88
2023/01/31 09:19:46;;;;;;;17.83;5.00;;;7.00;99.90;;;;;;4975608;28;20042;-89
2023/01/31 09:22:13;;;;;;;16.95;4.03;;;7.00;99.90;;;;;;4989440;28;20403;-87
2023/01/31 09:24:39;;;;;;;18.92;6.38;;;7.00;99.90;;;;;;4990724;28;20438;-88
2023/01/31 09:27:04;;;;;;;21.85;6.25;;;7.00;99.90;;;;;;4990238;28;20046;-90
2023/01/31 09:29:30;;;;;;;9.68;3.40;;;7.00;99.90;;;;;;4971380;28;20728;-90
2023/01/31 09:31:55;;;;;;;8.70;2.50;;;7.00;99.90;;;;;;4986572;28;20450;-88
2023/01/31 09:34:21;;;;;;;18.08;5.53;;;7.10;99.90;;;;;;4984543;28;20050;-88
2023/01/31 09:36:47;;;;;;;10.73;3.05;;;7.10;99.90;;;;;;4987700;28;20102;-87
2023/01/31 09:39:13;;;;;;;16.27;5.28;;;7.20;99.90;;;;;;4990698;28;20043;-91
2023/01/31 09:41:52;;;;;;;13.98;2.72;;;7.20;99.90;;;;;;4989700;28;20042;-91
2023/01/31 09:44:26;;;;;;;9.57;2.70;;;7.20;99.90;;;;;;4980064;28;20367;-94
2023/01/31 09:46:57;;;;;;;11.85;2.70;;;7.30;99.90;;;;;;4975757;28;20070;-92
2023/01/31 09:49:27;;;;;;;16.80;4.20;;;7.30;99.90;;;;;;4977645;28;20042;-90
2023/01/31 09:52:01;;;;;;;10.85;2.97;;;7.40;99.90;;;;;;4989001;28;20487;-91
2023/01/31 09:54:32;;;;;;;14.32;4.15;;;7.40;99.90;;;;;;4976480;28;20088;-91
2023/01/31 09:57:28;;;;;;;13.35;3.40;;;7.40;99.90;;;;;;4992802;28;20042;-90
2023/01/31 10:00:17;;;;;;;17.77;5.63;;;7.50;99.90;;;;;;4975429;28;20069;-89
2023/01/31 10:02:55;;;;;;;15.60;5.35;;;7.50;99.90;;;;;;4977036;28;20038;-88
2023/01/31 10:05:29;;;;;;;7.85;2.45;;;7.50;99.90;;;;;;4976388;28;20477;-88
2023/01/31 10:08:33;;;;;;;19.55;4.95;;;7.60;99.90;;;;;;4992595;28;20038;-90
2023/01/31 10:11:01;;;;;;;11.80;2.88;;;7.50;99.90;;;;;;4976396;28;20093;-91
2023/01/31 10:13:34;;;;;;;9.40;2.72;;;7.60;99.90;;;;;;4992137;28;20049;-93
2023/01/31 10:16:05;;;;;;;16.48;5.95;;;7.60;99.90;;;;;;4977071;28;20443;-90
2023/01/31 10:18:39;;;;;;;12.45;3.83;;;7.70;99.90;;;;;;4975994;28;20066;-90
2023/01/31 10:21:20;;;;;;;17.50;6.13;;;7.70;99.90;;;;;;4975525;28;20064;-90
2023/01/31 10:24:04;;;;;;;13.75;4.13;;;7.70;99.90;;;;;;4975391;28;20042;-91
2023/01/31 10:26:33;;;;;;;17.23;6.40;;;7.60;99.90;;;;;;4976446;28;20069;-90
2023/01/31 10:29:01;;;;;;;19.25;5.97;;;7.60;99.90;;;;;;4991464;28;20128;-91
2023/01/31 10:31:38;;;;;;;20.27;5.97;;;7.60;99.90;;;;;;4990720;28;20105;-91
2023/01/31 10:34:08;;;;;;;9.00;3.33;;;7.60;99.90;;;;;;4990643;28;20513;-90
2023/01/31 10:36:49;;;;;;;19.27;6.40;;;7.60;99.90;;;;;;4990526;28;20133;-90
2023/01/31 10:39:42;;;;;;;18.70;5.90;;;7.60;99.90;;;;;;4974806;28;20046;-90
2023/01/31 10:42:22;;;;;;;9.98;2.72;;;7.60;99.90;;;;;;4990948;28;20049;-91
2023/01/31 10:45:16;;;;;;;11.15;3.38;;;7.60;99.90;;;;;;4990564;28;20093;-91
2023/01/31 10:47:59;;;;;;;19.42;5.82;;;7.60;99.90;;;;;;4970532;28;20081;-90
2023/01/31 10:50:30;;;;;;;17.73;5.93;;;7.60;99.90;;;;;;4974698;28;20088;-87
2023/01/31 10:53:33;;;;;;;7.90;3.47;;;7.60;99.90;;;;;;4990517;28;20336;-91
2023/01/31 10:56:16;;;;;;;20.05;6.60;;;7.60;99.90;;;;;;4987762;28;20439;-89
2023/01/31 10:58:42;;;;;;;20.02;7.00;;;7.50;99.90;;;;;;4971854;28;20125;-91
2023/01/31 11:01:10;;;;;;;14.73;4.07;;;7.50;99.90;;;;;;4955319;28;20571;-91
2023/01/31 11:03:37;;;;;;;10.13;2.78;;;7.40;99.90;;;;;;4971312;28;20043;-91
2023/01/31 11:06:05;;;;;;;16.90;6.32;;;7.30;99.90;;;;;;4990572;28;20038;-89
2023/01/31 11:08:45;;;;;;;9.68;2.30;;;7.30;99.90;;;;;;4973796;28;20042;-92
2023/01/31 11:11:19;;;;;;;9.90;2.57;;;7.30;99.90;;;;;;4975557;28;20045;-89
2023/01/31 11:14:03;;;;;;;14.93;6.40;;;7.40;99.90;;;;;;4975051;28;20297;-89
2023/01/31 11:16:32;;;;;;;13.13;4.68;;;7.40;99.90;;;;;;4993547;28;20035;-93
2023/01/31 11:19:00;;;;;;;20.30;7.25;;;7.40;99.90;;;;;;4982866;28;20057;-88
2023/01/31 11:21:30;;;;;;;21.20;7.22;;;7.40;99.90;;;;;;4975144;28;20514;-88
2023/01/31 11:24:07;;;;;;;13.68;3.83;;;7.40;99.90;;;;;;4987589;28;20081;-89
2023/01/31 11:26:35;;;;;;;11.65;4.00;;;7.50;99.90;;;;;;4990538;28;20418;-87
2023/01/31 11:29:06;;;;;;;20.63;7.35;;;7.50;99.90;;;;;;4993618;28;20042;-90
2023/01/31 11:31:37;;;;;;;9.30;2.50;;;7.50;99.90;;;;;;4972796;28;20053;-89
2023/01/31 11:34:16;;;;;;;23.67;7.03;;;7.50;99.90;;;;;;4975861;28;20062;-92
2023/01/31 11:36:44;;;;;;;8.45;2.65;;;7.50;99.90;;;;;;4983106;28;20391;-92
2023/01/31 11:39:32;;;;;;;21.90;6.80;;;7.50;99.90;;;;;;4987056;28;20081;-85
2023/01/31 11:42:05;;;;;;;11.70;2.95;;;7.50;99.90;;;;;;4981843;28;20050;-88
2023/01/31 11:44:31;;;;;;;22.60;7.60;;;7.40;99.90;;;;;;4987867;28;20049;-89
2023/01/31 11:47:02;;;;;;;11.77;2.92;;;7.40;99.90;;;;;;4973344;28;20051;-89
2023/01/31 11:49:33;;;;;;;;;;;7.40;99.90;;;;;;4988119;28;20387;-86
2023/01/31 11:52:19;;;;;;;19.30;4.78;;;7.40;99.90;;;;;;4989588;28;19924;-91
2023/01/31 11:54:55;;;;;;;14.27;3.40;;;7.40;99.90;;;;;;4987638;28;20046;-89
2023/01/31 11:57:24;;;;;;;23.00;7.05;;;7.50;99.90;;;;;;4989314;28;20126;-89
2023/01/31 11:59:53;;;;;;;24.23;7.35;;;7.50;99.90;;;;;;4976649;28;20038;-91
2023/01/31 12:02:34;;;;;;;20.75;6.00;;;7.50;99.90;;;;;;4971231;28;20038;-93
2023/01/31 12:05:01;;;;;;;;;;;7.50;99.90;;;;;;4989627;28;20121;-88
2023/01/31 12:07:43;;;;;;;13.10;4.40;;;7.50;99.90;;;;;;4973691;28;19925;-92
2023/01/31 12:10:27;;;;;;;10.63;3.53;;;7.60;99.90;;;;;;4990839;28;20050;-89
2023/01/31 12:12:56;;;;;;;21.60;6.18;;;7.60;99.90;;;;;;4995080;28;20038;-95
2023/01/31 12:15:22;;;;;;;14.80;3.53;;;7.70;99.90;;;;;;4997466;28;20120;-91
2023/01/31 12:17:49;;;;;;;25.52;7.05;;;7.80;99.90;;;;;;4999032;28;20034;-95
2023/01/31 12:20:50;;;;;;;11.20;2.85;;;7.80;99.90;;;;;;4993980;28;20038;-93
2023/01/31 12:23:38;;;;;;;15.18;3.20;;;7.80;99.90;;;;;;4965087;28;20058;-92
2023/01/31 12:26:15;;;;;;;19.38;6.22;;;7.90;99.90;;;;;;4984516;28;20042;-94
2023/01/31 12:29:02;;;;;;;21.50;5.75;;;7.90;99.90;;;;;;5009425;28;20046;-96
2023/01/31 12:31:57;;;;;;;20.60;7.00;;;7.90;99.90;;;;;;4979724;28;20074;-93
2023/01/31 12:34:55;;;;;;;19.08;6.97;;;8.00;99.90;;;;;;4980848;28;20058;-93
2023/01/31 12:37:40;;;;;;;12.82;3.28;;;8.00;99.90;;;;;;4980316;28;20042;-94
2023/01/31 12:40:34;;;;;;;19.08;5.53;;;8.10;99.90;;;;;;4979448;28;20050;-92
2023/01/31 12:43:16;;;;;;;21.60;5.97;;;8.20;99.90;;;;;;4978586;28;20038;-92
2023/01/31 12:45:44;;;;;;;12.88;2.92;;;8.20;99.90;;;;;;4982268;28;20076;-94
2023/01/31 12:48:29;;;;;;;19.92;5.57;;;8.20;99.90;;;;;;4983356;28;20480;-90
2023/01/31 12:51:39;;;;;;;18.70;5.68;;;8.30;99.90;;;;;;4981819;28;20117;-94
2023/01/31 12:54:34;;;;;;;15.82;7.65;;;8.30;99.90;;;;;;4888797;29;20083;-95
2023/01/31 12:57:20;;;;;;;18.08;7.45;;;8.30;99.90;;;;;;4902027;29;20055;-93
2023/01/31 13:00:02;;;;;;;16.20;6.05;;;8.40;99.90;;;;;;4919110;29;20251;-96
2023/01/31 13:02:55;;;;;;;18.55;5.55;;;8.50;99.90;;;;;;4904686;29;20115;-95
2023/01/31 13:05:29;;;;;;;17.90;7.80;;;8.50;99.90;;;;;;4905422;29;20044;-93
2023/01/31 13:08:06;;;;;;;16.92;5.30;;;8.50;99.90;;;;;;4906655;29;20047;-91
2023/01/31 13:10:39;;;;;;;9.15;3.40;;;8.70;99.90;;;;;;4892561;29;20036;-89